createdAt,value
2023-03-23T15:58:27.753Z,66.75
2023-03-23T16:00:30.747Z,67.04
2023-03-23T16:02:34.678Z,66.61
2023-03-23T16:04:37.365Z,66.40
2023-03-23T16:06:40.211Z,66.67
2023-03-23T16:08:43.884Z,66.42
2023-03-23T16:10:57.585Z,65.85
2023-03-23T16:13:00.386Z,65.84
2023-03-23T16:15:03.260Z,66.48
2023-03-23T16:17:06.523Z,67.37
2023-03-23T16:19:12.168Z,68.09
2023-03-23T16:21:15.159Z,68.30
2023-03-23T16:23:18.285Z,69.28
2023-03-23T16:25:20.918Z,69.91
2023-03-23T16:27:24.142Z,70.35
2023-03-23T16:29:46.842Z,70.76
2023-03-23T16:31:50.058Z,71.50
2023-03-23T16:33:52.786Z,72.07
2023-03-23T16:35:55.469Z,72.81
2023-03-23T16:38:08.385Z,73.45
2023-03-23T16:40:13.412Z,74.22
2023-03-23T16:42:15.955Z,74.31
2023-03-23T16:44:18.431Z,74.90
2023-03-23T16:46:21.106Z,75.48
2023-03-23T16:48:24.149Z,76.25
2023-03-23T16:50:27.110Z,76.51
2023-03-23T16:52:29.819Z,76.82
2023-03-23T16:54:32.515Z,77.00
2023-03-23T16:56:35.414Z,77.16
2023-03-23T16:58:38.130Z,78.31
2023-03-23T17:00:41.285Z,78.40
2023-03-23T17:02:45.074Z,78.73
2023-03-23T17:04:47.961Z,78.26
2023-03-23T17:06:52.110Z,78.96
2023-03-23T17:08:54.620Z,77.94
2023-03-23T17:10:57.477Z,78.67
2023-03-23T17:13:00.529Z,78.65
2023-03-23T17:15:03.635Z,78.17
2023-03-23T17:17:06.293Z,78.47
2023-03-23T17:19:09.479Z,78.97
2023-03-23T17:21:16.361Z,79.06
2023-03-23T17:23:18.829Z,79.51
2023-03-23T17:25:21.412Z,79.44
2023-03-23T17:27:25.414Z,79.78
2023-03-23T17:29:28.372Z,79.43
2023-03-23T17:31:31.553Z,79.59
2023-03-23T17:33:34.603Z,78.44
2023-03-23T17:35:37.224Z,78.86
2023-03-23T17:37:40.071Z,78.40
2023-03-23T17:39:44.462Z,78.33
2023-03-23T17:41:48.455Z,76.91
2023-03-23T17:43:51.330Z,76.98
2023-03-23T17:45:55.214Z,76.58
2023-03-23T17:47:58.036Z,76.60
2023-03-23T17:50:11.884Z,76.74
2023-03-23T17:52:16.089Z,76.24
2023-03-23T17:54:19.120Z,75.80
2023-03-23T17:56:21.920Z,74.87
2023-03-23T17:58:27.757Z,74.85
2023-03-23T18:00:31.378Z,75.19
2023-03-23T18:02:34.738Z,75.23
2023-03-23T18:04:38.564Z,75.78
2023-03-23T18:06:41.534Z,75.76
2023-03-23T18:08:44.543Z,76.24
2023-03-23T18:10:47.742Z,76.99
2023-03-23T18:12:51.879Z,77.25
2023-03-23T18:14:58.604Z,78.36
2023-03-23T18:17:01.178Z,78.80
2023-03-23T18:19:04.278Z,78.55
2023-03-23T18:21:10.135Z,78.11
2023-03-23T18:23:13.655Z,79.05
2023-03-23T18:25:17.215Z,79.15
2023-03-23T18:27:19.735Z,79.10
2023-03-23T18:29:22.745Z,79.22
2023-03-23T18:31:26.375Z,79.78
2023-03-23T18:33:29.729Z,79.40
2023-03-23T18:35:32.440Z,80.31
2023-03-23T18:37:39.817Z,80.37
2023-03-23T18:39:42.594Z,80.24
2023-03-23T18:41:45.008Z,80.25
2023-03-23T18:43:48.129Z,80.89
2023-03-23T18:45:53.462Z,81.17
2023-03-23T18:47:56.607Z,81.84
2023-03-23T18:49:59.855Z,82.60
2023-03-23T18:52:01.986Z,81.95
2023-03-23T18:54:06.024Z,82.38
2023-03-23T18:56:12.276Z,82.13
2023-03-23T18:58:17.239Z,82.25
2023-03-23T19:00:22.240Z,82.42
2023-03-23T19:02:24.781Z,82.79
2023-03-23T19:04:32.032Z,82.58
2023-03-23T19:06:35.273Z,81.54
2023-03-23T19:08:37.624Z,82.40
2023-03-23T19:10:43.150Z,82.09
2023-03-23T19:12:47.232Z,82.14
2023-03-23T19:14:52.121Z,82.00
2023-03-23T19:16:54.481Z,82.51
2023-03-23T19:18:56.829Z,81.80
2023-03-23T19:23:04.789Z,81.57
2023-03-23T19:25:10.130Z,81.25
2023-03-23T19:27:12.327Z,80.44
2023-03-23T19:31:25.206Z,79.93
2023-03-23T19:33:27.954Z,79.90
2023-03-23T19:35:32.126Z,78.81
2023-03-23T19:37:34.873Z,79.53
2023-03-23T19:39:37.231Z,79.12
2023-03-23T19:41:39.614Z,79.63
2023-03-23T19:43:43.497Z,79.84
2023-03-23T19:45:46.174Z,80.64
2023-03-23T19:47:49.567Z,79.45
2023-03-23T19:49:51.918Z,79.93
2023-03-23T19:52:09.316Z,79.15
2023-03-23T19:54:13.984Z,79.28
2023-03-23T19:56:18.623Z,78.73
2023-03-23T19:58:21.406Z,78.75
2023-03-23T20:00:24.608Z,78.21
2023-03-23T20:02:27.407Z,77.88
2023-03-23T20:04:29.674Z,77.52
2023-03-23T20:06:32.064Z,77.23
2023-03-23T20:08:35.064Z,77.17
2023-03-23T20:10:40.802Z,77.29
2023-03-23T20:12:42.975Z,76.93
2023-03-23T20:14:45.501Z,76.55
2023-03-23T20:16:48.088Z,76.26
2023-03-23T20:18:50.686Z,76.71
2023-03-23T20:21:02.121Z,76.18
2023-03-23T20:23:04.699Z,75.74
2023-03-23T20:25:08.146Z,75.50
2023-03-23T20:27:10.291Z,76.22
2023-03-23T20:29:12.831Z,77.18
2023-03-23T20:31:23.324Z,77.04
2023-03-23T20:33:26.909Z,76.71
2023-03-23T20:35:29.618Z,76.95
2023-03-23T20:37:32.444Z,76.61
2023-03-23T20:39:34.603Z,76.80
2023-03-23T20:41:39.078Z,77.25
2023-03-23T20:43:43.311Z,77.61
2023-03-23T20:45:46.430Z,77.87
2023-03-23T20:47:48.897Z,77.27
2023-03-23T20:49:52.948Z,77.49
2023-03-23T20:51:55.768Z,76.91
2023-03-23T20:53:57.955Z,77.47
2023-03-23T20:56:04.080Z,77.46
2023-03-23T20:58:06.574Z,77.27
2023-03-23T21:00:09.656Z,76.69
2023-03-23T21:02:16.487Z,76.38
2023-03-23T21:04:23.177Z,76.67
2023-03-23T21:06:28.882Z,76.05
2023-03-23T21:08:31.349Z,75.98
2023-03-23T21:10:35.020Z,76.23
2023-03-23T21:12:37.301Z,75.71
2023-03-23T21:14:40.661Z,75.32
2023-03-23T21:16:43.471Z,76.07
2023-03-23T21:18:46.310Z,76.13
2023-03-23T21:20:50.916Z,76.06
2023-03-23T21:22:53.223Z,75.90
2023-03-23T21:24:55.357Z,76.40
2023-03-23T21:26:59.668Z,76.38
2023-03-23T21:29:01.794Z,76.13
2023-03-23T21:31:07.562Z,76.13
2023-03-23T21:33:10.205Z,76.09
2023-03-23T21:35:12.884Z,76.08
2023-03-23T21:37:16.196Z,76.13
2023-03-23T21:39:20.019Z,75.35
2023-03-23T21:41:23.859Z,74.99
2023-03-23T21:43:27.882Z,74.50
2023-03-23T21:45:30.187Z,75.16
2023-03-23T21:47:32.320Z,74.50
2023-03-23T21:49:34.557Z,74.54
2023-03-23T21:51:43.506Z,75.07
2023-03-23T21:53:47.368Z,75.31
2023-03-23T21:55:52.762Z,74.53
2023-03-23T21:57:54.816Z,74.53
2023-03-23T21:59:57.021Z,74.58
2023-03-23T22:01:59.636Z,74.30
2023-03-23T22:04:01.906Z,74.70
2023-03-23T22:06:10.660Z,74.38
2023-03-23T22:08:12.757Z,74.32
2023-03-23T22:10:15.651Z,74.23
2023-03-23T22:12:18.625Z,73.99
2023-03-23T22:14:21.116Z,73.95
2023-03-23T22:16:24.724Z,74.27
2023-03-23T22:18:27.645Z,74.35
2023-03-23T22:20:30.185Z,74.80
2023-03-23T22:22:32.908Z,74.56
2023-03-23T22:24:35.189Z,75.01
2023-03-23T22:26:37.382Z,74.38
2023-03-23T22:28:40.789Z,74.32
2023-03-23T22:30:43.224Z,75.12
2023-03-23T22:32:45.642Z,74.69
2023-03-23T22:34:49.342Z,74.81
2023-03-23T22:36:51.774Z,74.25
2023-03-23T22:38:55.797Z,74.33
2023-03-23T22:40:58.774Z,73.98
2023-03-23T22:43:00.918Z,73.73
2023-03-23T22:45:04.075Z,73.73
2023-03-23T22:47:06.619Z,74.21
2023-03-23T22:49:09.265Z,74.22
2023-03-23T22:51:13.296Z,74.13
2023-03-23T22:53:17.534Z,74.32
2023-03-23T22:55:20.701Z,73.66
2023-03-23T22:57:22.895Z,74.52
2023-03-23T22:59:25.047Z,73.73
2023-03-23T23:01:27.900Z,73.84
2023-03-23T23:03:31.595Z,73.92
2023-03-23T23:05:35.614Z,73.33
2023-03-23T23:07:38.224Z,73.34
2023-03-23T23:09:42.542Z,73.57
2023-03-23T23:11:44.831Z,73.72
2023-03-23T23:13:47.199Z,73.42
2023-03-23T23:15:54.200Z,73.38
2023-03-23T23:17:56.474Z,73.34
2023-03-23T23:20:00.191Z,73.14
2023-03-23T23:22:16.143Z,73.24
2023-03-23T23:24:20.646Z,73.13
2023-03-23T23:26:23.276Z,73.29
2023-03-23T23:28:26.001Z,73.08
2023-03-23T23:30:29.518Z,72.46
2023-03-23T23:32:32.525Z,72.30
2023-03-23T23:34:34.962Z,72.87
2023-03-23T23:36:37.841Z,72.58
2023-03-23T23:38:39.980Z,72.75
2023-03-23T23:40:43.498Z,72.27
2023-03-23T23:42:48.221Z,72.38
2023-03-23T23:44:50.359Z,72.40
2023-03-23T23:46:52.572Z,71.99
2023-03-23T23:48:55.033Z,72.37
2023-03-23T23:50:57.170Z,71.99
2023-03-23T23:52:59.346Z,71.45
2023-03-23T23:55:01.496Z,71.83
2023-03-23T23:57:05.128Z,71.43
2023-03-23T23:59:07.283Z,71.18
